createdAt,value
2018-08-27T00:00:49.764Z,990.86
2018-08-27T00:01:49.750Z,990.84
2018-08-27T00:02:49.737Z,990.83
2018-08-27T00:03:49.735Z,990.78
2018-08-27T00:04:49.720Z,990.82
2018-08-27T00:05:49.715Z,990.78
2018-08-27T00:06:49.721Z,990.74
2018-08-27T00:07:49.704Z,990.72
2018-08-27T00:08:49.696Z,990.74
2018-08-27T00:09:49.687Z,990.69
2018-08-27T00:10:49.678Z,990.71
2018-08-27T00:11:49.670Z,990.67
2018-08-27T00:12:49.668Z,990.65
2018-08-27T00:13:49.664Z,990.68
2018-08-27T00:14:49.651Z,990.66
2018-08-27T00:15:49.642Z,990.64
2018-08-27T00:16:49.637Z,990.63
2018-08-27T00:17:49.628Z,990.66
2018-08-27T00:18:49.625Z,990.68
2018-08-27T00:19:49.616Z,990.66
2018-08-27T00:20:49.605Z,990.66
2018-08-27T00:21:49.599Z,990.66
2018-08-27T00:22:49.591Z,990.69
2018-08-27T00:23:49.583Z,990.68
2018-08-27T00:24:49.580Z,990.69
2018-08-27T00:25:49.573Z,990.71
2018-08-27T00:26:49.565Z,990.74
2018-08-27T00:27:49.558Z,990.73
2018-08-27T00:28:49.546Z,990.73
2018-08-27T00:29:49.541Z,990.73
2018-08-27T00:30:49.535Z,990.71
2018-08-27T00:31:49.524Z,990.69
2018-08-27T00:32:49.521Z,990.71
2018-08-27T00:33:49.510Z,990.66
2018-08-27T00:34:49.507Z,990.63
2018-08-27T00:35:49.497Z,990.62
2018-08-27T00:36:49.490Z,990.60
2018-08-27T00:37:49.483Z,990.59
2018-08-27T00:38:49.475Z,990.57
2018-08-27T00:39:49.467Z,990.56
2018-08-27T00:40:49.460Z,990.55
2018-08-27T00:41:49.457Z,990.53
2018-08-27T00:42:49.446Z,990.54
2018-08-27T00:43:49.443Z,990.51
2018-08-27T00:44:49.429Z,990.48
2018-08-27T00:45:49.424Z,990.48
2018-08-27T00:46:49.420Z,990.47
2018-08-27T00:47:49.409Z,990.47
2018-08-27T00:48:49.401Z,990.44
2018-08-27T00:49:49.396Z,990.50
2018-08-27T00:50:49.387Z,990.46
2018-08-27T00:51:49.380Z,990.50
2018-08-27T00:52:49.376Z,990.50
2018-08-27T00:53:49.368Z,990.47
2018-08-27T00:54:49.357Z,990.51
2018-08-27T00:55:49.353Z,990.53
2018-08-27T00:56:49.345Z,990.50
2018-08-27T00:57:49.334Z,990.47
2018-08-27T00:58:49.328Z,990.46
2018-08-27T00:59:49.328Z,990.48
2018-08-27T01:00:49.316Z,990.48
2018-08-27T01:01:49.306Z,990.45
2018-08-27T01:02:49.296Z,990.47
2018-08-27T01:03:49.293Z,990.44
2018-08-27T01:04:49.284Z,990.49
2018-08-27T01:05:49.279Z,990.44
2018-08-27T01:06:49.271Z,990.45
2018-08-27T01:07:49.269Z,990.43
2018-08-27T01:08:49.260Z,990.40
2018-08-27T01:09:49.254Z,990.43
2018-08-27T01:10:49.240Z,990.39
2018-08-27T01:11:49.236Z,990.38
2018-08-27T01:12:49.228Z,990.33
2018-08-27T01:13:49.222Z,990.34
2018-08-27T01:14:49.211Z,990.34
2018-08-27T01:15:49.206Z,990.34
2018-08-27T01:16:49.198Z,990.33
2018-08-27T01:17:49.190Z,990.37
2018-08-27T01:18:49.185Z,990.34
2018-08-27T01:19:49.179Z,990.32
2018-08-27T01:20:49.168Z,990.35
2018-08-27T01:21:49.165Z,990.31
2018-08-27T01:22:49.153Z,990.29
2018-08-27T01:23:49.148Z,990.26
2018-08-27T01:24:49.144Z,990.28
2018-08-27T01:25:49.140Z,990.28
2018-08-27T01:26:49.123Z,990.26
2018-08-27T01:27:49.117Z,990.24
2018-08-27T01:28:49.112Z,990.24
2018-08-27T01:29:49.107Z,990.26
2018-08-27T01:30:49.094Z,990.30
2018-08-27T01:31:49.088Z,990.27
2018-08-27T01:32:49.082Z,990.27
2018-08-27T01:33:49.074Z,990.29
2018-08-27T01:34:49.065Z,990.29
2018-08-27T01:35:49.060Z,990.26
2018-08-27T01:36:49.051Z,990.24
2018-08-27T01:37:49.044Z,990.22
2018-08-27T01:38:49.035Z,990.18
2018-08-27T01:39:49.036Z,990.11
2018-08-27T01:40:49.022Z,990.14
2018-08-27T01:41:49.016Z,990.07
2018-08-27T01:42:49.011Z,990.06
2018-08-27T01:43:49.000Z,990.10
2018-08-27T01:44:48.992Z,990.02
2018-08-27T01:45:48.991Z,990.10
2018-08-27T01:46:48.979Z,990.06
2018-08-27T01:47:48.969Z,990.08
2018-08-27T01:48:48.963Z,990.09
2018-08-27T01:49:48.953Z,990.06
2018-08-27T01:50:48.946Z,990.06
2018-08-27T01:51:48.938Z,990.07
2018-08-27T01:52:48.930Z,990.04
2018-08-27T01:53:48.923Z,990.07
2018-08-27T01:54:48.919Z,990.07
2018-08-27T01:55:48.905Z,990.08
2018-08-27T01:56:48.900Z,990.08
2018-08-27T01:57:48.922Z,990.02
2018-08-27T01:58:48.886Z,990.04
2018-08-27T01:59:48.908Z,990.03
2018-08-27T02:00:48.898Z,990.05
2018-08-27T02:01:48.889Z,990.02
2018-08-27T02:02:48.883Z,990.06
2018-08-27T02:03:48.862Z,990.09
2018-08-27T02:04:48.851Z,990.12
2018-08-27T02:05:48.844Z,990.07
2018-08-27T02:06:48.822Z,990.08
2018-08-27T02:07:48.813Z,990.04
2018-08-27T02:08:48.805Z,990.08
2018-08-27T02:09:48.800Z,990.06
2018-08-27T02:10:48.793Z,990.09
2018-08-27T02:11:48.782Z,990.01
2018-08-27T02:12:48.779Z,990.00
2018-08-27T02:13:48.767Z,990.02
2018-08-27T02:14:48.758Z,989.98
2018-08-27T02:15:48.749Z,989.99
2018-08-27T02:16:48.744Z,989.96
2018-08-27T02:17:48.736Z,989.97
2018-08-27T02:18:48.727Z,989.96
2018-08-27T02:19:48.719Z,989.97
2018-08-27T02:20:48.714Z,989.99
2018-08-27T02:21:48.704Z,989.99
2018-08-27T02:22:48.696Z,989.99
2018-08-27T02:23:48.688Z,989.96
2018-08-27T02:24:48.681Z,989.95
2018-08-27T02:25:48.702Z,989.95
2018-08-27T02:26:48.665Z,989.97
2018-08-27T02:27:48.658Z,989.94
2018-08-27T02:28:48.654Z,989.95
2018-08-27T02:29:48.640Z,989.93
2018-08-27T02:30:48.632Z,989.90
2018-08-27T02:31:48.626Z,989.91
2018-08-27T02:32:48.618Z,989.97
2018-08-27T02:33:48.612Z,989.91
2018-08-27T02:34:48.627Z,989.94
2018-08-27T02:35:48.599Z,989.99
2018-08-27T02:36:48.589Z,990.01
2018-08-27T02:37:48.587Z,990.03
2018-08-27T02:38:48.569Z,990.04
2018-08-27T02:39:48.565Z,990.10
2018-08-27T02:40:48.556Z,990.06
2018-08-27T02:41:48.550Z,990.04
2018-08-27T02:42:48.540Z,990.06
2018-08-27T02:43:48.540Z,990.07
2018-08-27T02:44:48.530Z,990.09
2018-08-27T02:45:48.517Z,990.09
2018-08-27T02:46:48.513Z,990.07
2018-08-27T02:47:48.502Z,990.10
2018-08-27T02:48:48.494Z,990.08
2018-08-27T02:49:48.484Z,990.06
2018-08-27T02:50:48.479Z,990.10
2018-08-27T02:51:48.474Z,990.09
2018-08-27T02:52:48.461Z,990.16
2018-08-27T02:53:48.454Z,990.15
2018-08-27T02:54:48.447Z,990.13
2018-08-27T02:55:48.437Z,990.10
2018-08-27T02:56:48.433Z,990.10
2018-08-27T02:57:48.425Z,990.08
2018-08-27T02:58:48.417Z,990.06
2018-08-27T02:59:48.409Z,990.09
2018-08-27T03:00:48.409Z,990.09
2018-08-27T03:01:48.394Z,990.02
2018-08-27T03:02:48.386Z,990.00
2018-08-27T03:03:48.378Z,990.01
2018-08-27T03:04:48.380Z,989.99
2018-08-27T03:05:48.362Z,989.98
2018-08-27T03:06:48.357Z,989.95
2018-08-27T03:07:48.350Z,989.99
2018-08-27T03:08:48.339Z,989.99
2018-08-27T03:09:48.332Z,989.98
2018-08-27T03:10:48.325Z,989.95
2018-08-27T03:11:48.318Z,989.95
2018-08-27T03:12:48.311Z,989.94
2018-08-27T03:13:48.303Z,989.93
2018-08-27T03:14:48.293Z,989.88
2018-08-27T03:15:48.287Z,989.90
2018-08-27T03:16:48.278Z,989.87
2018-08-27T03:17:48.270Z,989.85
2018-08-27T03:18:48.262Z,989.87
2018-08-27T03:19:48.259Z,989.90
2018-08-27T03:20:48.247Z,989.91
2018-08-27T03:21:48.240Z,989.89
2018-08-27T03:22:48.231Z,989.89
2018-08-27T03:23:48.225Z,989.94
2018-08-27T03:24:48.234Z,989.94
2018-08-27T03:25:48.211Z,989.99
2018-08-27T03:26:48.204Z,989.97
2018-08-27T03:27:48.196Z,989.98
2018-08-27T03:28:48.187Z,989.93
2018-08-27T03:29:48.178Z,989.96
2018-08-27T03:30:48.169Z,989.99
2018-08-27T03:31:48.167Z,990.00
2018-08-27T03:32:48.156Z,989.97
2018-08-27T03:33:48.149Z,989.97
2018-08-27T03:34:48.140Z,990.00
2018-08-27T03:35:48.132Z,989.94
2018-08-27T03:36:48.125Z,989.96
2018-08-27T03:37:48.116Z,989.94
2018-08-27T03:38:48.109Z,989.91
2018-08-27T03:39:48.106Z,989.90
2018-08-27T03:40:48.202Z,989.88
2018-08-27T03:41:48.086Z,989.88
2018-08-27T03:42:48.076Z,989.89
2018-08-27T03:43:48.070Z,989.86
2018-08-27T03:44:48.063Z,989.86
2018-08-27T03:45:48.055Z,989.81
2018-08-27T03:46:48.046Z,989.84
2018-08-27T03:47:48.038Z,989.77
2018-08-27T03:48:48.030Z,989.81
2018-08-27T03:49:48.022Z,989.74
2018-08-27T03:50:48.027Z,989.75
2018-08-27T03:51:48.008Z,989.71
2018-08-27T03:52:48.000Z,989.66
2018-08-27T03:53:47.991Z,989.71
2018-08-27T03:54:47.983Z,989.69
2018-08-27T03:55:47.973Z,989.67
2018-08-27T03:56:47.967Z,989.67
2018-08-27T03:57:47.959Z,989.72
2018-08-27T03:58:47.952Z,989.67
2018-08-27T03:59:47.940Z,989.68
2018-08-27T04:00:47.963Z,989.69
2018-08-27T04:01:47.927Z,989.70
2018-08-27T04:02:47.955Z,989.74
2018-08-27T04:03:47.912Z,989.74
2018-08-27T04:04:47.902Z,989.76
2018-08-27T04:05:47.892Z,989.80
2018-08-27T04:06:47.884Z,989.74
2018-08-27T04:07:47.875Z,989.74
2018-08-27T04:08:47.873Z,989.77
2018-08-27T04:09:47.860Z,989.79
2018-08-27T04:10:47.849Z,989.79
2018-08-27T04:11:47.843Z,989.81
2018-08-27T04:12:47.837Z,989.81
2018-08-27T04:13:47.824Z,989.79
2018-08-27T04:14:47.816Z,989.81
2018-08-27T04:15:47.812Z,989.80
2018-08-27T04:16:47.801Z,989.82
2018-08-27T04:17:47.792Z,989.84
2018-08-27T04:18:47.781Z,989.82
2018-08-27T04:19:47.778Z,989.78
2018-08-27T04:20:47.779Z,989.76
2018-08-27T04:21:47.760Z,989.76
2018-08-27T04:22:47.751Z,989.74
2018-08-27T04:23:47.740Z,989.77
2018-08-27T04:24:47.737Z,989.73
2018-08-27T04:25:47.727Z,989.69
2018-08-27T04:26:47.716Z,989.68
2018-08-27T04:27:47.717Z,989.72
2018-08-27T04:28:47.776Z,989.70
2018-08-27T04:29:47.695Z,989.74
2018-08-27T04:30:47.684Z,989.74
2018-08-27T04:31:47.676Z,989.78
2018-08-27T04:32:47.665Z,989.71
2018-08-27T04:33:47.658Z,989.77
2018-08-27T04:34:47.653Z,989.78
2018-08-27T04:35:47.644Z,989.77
2018-08-27T04:36:47.633Z,989.77
2018-08-27T04:37:47.630Z,989.80
2018-08-27T04:38:47.620Z,989.81
2018-08-27T04:39:47.608Z,989.82
2018-08-27T04:40:47.594Z,989.85
2018-08-27T04:41:47.591Z,989.83
2018-08-27T04:42:47.584Z,989.85
2018-08-27T04:43:47.579Z,989.89
2018-08-27T04:44:47.567Z,989.91
2018-08-27T04:45:47.560Z,989.87
2018-08-27T04:46:47.551Z,989.92
2018-08-27T04:47:47.543Z,989.88
2018-08-27T04:48:47.535Z,989.89
2018-08-27T04:49:47.532Z,989.89
2018-08-27T04:50:47.523Z,989.86
2018-08-27T04:51:47.511Z,989.86
2018-08-27T04:52:47.508Z,989.79
2018-08-27T04:53:47.492Z,989.83
2018-08-27T04:54:47.488Z,989.81
2018-08-27T04:55:47.484Z,989.79
2018-08-27T04:56:47.473Z,989.80
2018-08-27T04:57:47.463Z,989.82
2018-08-27T04:58:47.456Z,989.82
2018-08-27T04:59:47.451Z,989.79
2018-08-27T05:00:47.441Z,989.82
2018-08-27T05:01:47.432Z,989.81
2018-08-27T05:02:47.427Z,989.83
2018-08-27T05:03:47.418Z,989.89
2018-08-27T05:04:47.411Z,989.91
2018-08-27T05:05:47.398Z,989.93
2018-08-27T05:06:47.393Z,989.90
2018-08-27T05:07:47.385Z,989.88
2018-08-27T05:08:47.379Z,989.89
2018-08-27T05:09:47.369Z,989.90
2018-08-27T05:10:47.363Z,989.92
2018-08-27T05:11:47.358Z,989.98
2018-08-27T05:12:47.349Z,989.99
2018-08-27T05:13:47.342Z,990.00
2018-08-27T05:14:47.329Z,989.96
2018-08-27T05:15:47.329Z,989.95
2018-08-27T05:16:47.317Z,989.93
2018-08-27T05:17:47.306Z,989.87
2018-08-27T05:18:47.297Z,989.88
2018-08-27T05:19:47.290Z,989.92
2018-08-27T05:20:47.289Z,989.86
2018-08-27T05:21:47.275Z,989.90
2018-08-27T05:22:47.266Z,989.94
2018-08-27T05:23:47.262Z,989.96
2018-08-27T05:24:47.251Z,989.97
2018-08-27T05:25:47.243Z,990.03
2018-08-27T05:26:47.234Z,990.03
2018-08-27T05:27:47.230Z,990.06
2018-08-27T05:28:47.220Z,990.04
2018-08-27T05:29:47.209Z,990.05
2018-08-27T05:30:47.208Z,990.04
2018-08-27T05:31:47.191Z,990.03
2018-08-27T05:32:47.196Z,990.04
2018-08-27T05:33:47.178Z,990.05
2018-08-27T05:34:47.170Z,990.09
2018-08-27T05:35:47.162Z,990.06
2018-08-27T05:36:47.155Z,990.10
2018-08-27T05:37:47.148Z,990.10
2018-08-27T05:38:47.145Z,990.09
2018-08-27T05:39:47.132Z,990.14
2018-08-27T05:40:47.123Z,990.23
2018-08-27T05:41:47.115Z,990.18
2018-08-27T05:42:47.105Z,990.18
2018-08-27T05:43:47.097Z,990.22
2018-08-27T05:44:47.097Z,990.19
2018-08-27T05:45:47.083Z,990.28
2018-08-27T05:46:47.074Z,990.27
2018-08-27T05:47:47.162Z,990.31
2018-08-27T05:48:47.060Z,990.34
2018-08-27T05:49:47.052Z,990.42
2018-08-27T05:50:47.045Z,990.41
2018-08-27T05:51:47.035Z,990.52
2018-08-27T05:52:47.029Z,990.54
2018-08-27T05:53:47.021Z,990.53
2018-08-27T05:54:47.013Z,990.57
2018-08-27T05:55:47.005Z,990.54
2018-08-27T05:56:46.999Z,990.53
2018-08-27T05:57:46.999Z,990.46
2018-08-27T05:58:46.981Z,990.45
2018-08-27T05:59:46.975Z,990.49
2018-08-27T06:00:46.966Z,990.32
2018-08-27T06:01:47.000Z,990.25
2018-08-27T06:02:46.952Z,990.27
2018-08-27T06:03:46.950Z,990.28
2018-08-27T06:04:46.938Z,990.29
2018-08-27T06:05:46.937Z,990.25
2018-08-27T06:06:46.929Z,990.27
2018-08-27T06:07:46.918Z,990.24
2018-08-27T06:08:46.906Z,990.22
2018-08-27T06:09:46.932Z,990.25
2018-08-27T06:10:46.889Z,990.22
2018-08-27T06:11:46.882Z,990.20
2018-08-27T06:12:46.875Z,990.21
2018-08-27T06:13:46.868Z,990.21
2018-08-27T06:14:46.860Z,990.26
2018-08-27T06:15:46.852Z,990.26
2018-08-27T06:16:46.853Z,990.26
2018-08-27T06:17:46.835Z,990.29
2018-08-27T06:18:46.832Z,990.23
2018-08-27T06:19:46.826Z,990.33
2018-08-27T06:20:46.812Z,990.33
2018-08-27T06:21:46.881Z,990.41
2018-08-27T06:22:46.805Z,990.42
2018-08-27T06:23:46.791Z,990.38
2018-08-27T06:24:46.785Z,990.45
2018-08-27T06:25:46.776Z,990.49
2018-08-27T06:26:46.769Z,990.49
2018-08-27T06:27:46.761Z,990.45
2018-08-27T06:28:46.756Z,990.42
2018-08-27T06:29:46.752Z,990.42
2018-08-27T06:30:46.739Z,990.42
2018-08-27T06:31:46.737Z,990.40
2018-08-27T06:32:46.725Z,990.42
2018-08-27T06:33:46.718Z,990.41
2018-08-27T06:34:46.709Z,990.39
2018-08-27T06:35:46.705Z,990.33
2018-08-27T06:36:46.693Z,990.32
2018-08-27T06:37:46.684Z,990.36
2018-08-27T06:38:46.680Z,990.34
2018-08-27T06:39:46.673Z,990.35
2018-08-27T06:40:46.664Z,990.34
2018-08-27T06:41:46.658Z,990.34
2018-08-27T06:42:46.649Z,990.31
2018-08-27T06:43:46.640Z,990.29
2018-08-27T06:44:46.640Z,990.29
2018-08-27T06:45:46.627Z,990.33
2018-08-27T06:46:46.618Z,990.33
2018-08-27T06:47:46.612Z,990.33
2018-08-27T06:48:46.601Z,990.30
2018-08-27T06:49:46.596Z,990.33
2018-08-27T06:50:46.586Z,990.29
2018-08-27T06:51:46.580Z,990.36
2018-08-27T06:52:46.572Z,990.36
2018-08-27T06:53:46.564Z,990.35
2018-08-27T06:54:46.560Z,990.38
2018-08-27T06:55:46.551Z,990.39
2018-08-27T06:56:46.589Z,990.38
2018-08-27T06:57:46.538Z,990.42
2018-08-27T06:58:46.528Z,990.42
2018-08-27T06:59:46.520Z,990.43
2018-08-27T07:00:46.518Z,990.45
2018-08-27T07:01:46.517Z,990.38
2018-08-27T07:02:46.498Z,990.41
2018-08-27T07:03:46.488Z,990.45
2018-08-27T07:04:46.492Z,990.46
2018-08-27T07:05:46.475Z,990.52
2018-08-27T07:06:46.467Z,990.46
2018-08-27T07:07:46.533Z,990.52
2018-08-27T07:08:46.454Z,990.55
2018-08-27T07:09:46.443Z,990.47
2018-08-27T07:10:46.437Z,990.49
2018-08-27T07:11:46.483Z,990.56
2018-08-27T07:12:46.422Z,990.59
2018-08-27T07:13:46.415Z,990.55
2018-08-27T07:14:46.412Z,990.56
2018-08-27T07:15:46.405Z,990.62
2018-08-27T07:16:46.391Z,990.61
2018-08-27T07:17:46.387Z,990.62
2018-08-27T07:18:46.378Z,990.68
2018-08-27T07:19:46.370Z,990.73
2018-08-27T07:20:46.368Z,990.72
2018-08-27T07:21:46.358Z,990.63
2018-08-27T07:22:46.347Z,990.68
2018-08-27T07:23:46.340Z,990.66
2018-08-27T07:24:46.333Z,990.68
2018-08-27T07:25:46.326Z,990.66
2018-08-27T07:26:46.326Z,990.67
2018-08-27T07:27:46.310Z,990.71
2018-08-27T07:28:46.302Z,990.67
2018-08-27T07:29:46.298Z,990.69
2018-08-27T07:30:46.287Z,990.70
2018-08-27T07:31:46.280Z,990.63
2018-08-27T07:32:46.277Z,990.70
2018-08-27T07:33:46.265Z,990.61
2018-08-27T07:34:46.260Z,990.62
2018-08-27T07:35:46.252Z,990.55
2018-08-27T07:36:46.243Z,990.52
2018-08-27T07:37:46.267Z,990.54
2018-08-27T07:38:46.233Z,990.57
2018-08-27T07:39:46.253Z,990.53
2018-08-27T07:40:46.238Z,990.52
2018-08-27T07:41:46.228Z,990.54
2018-08-27T07:42:46.228Z,990.57
2018-08-27T07:43:46.207Z,990.52
2018-08-27T07:44:46.182Z,990.51
2018-08-27T07:45:46.176Z,990.49
2018-08-27T07:46:46.179Z,990.56
2018-08-27T07:47:46.167Z,990.54
2018-08-27T07:48:46.155Z,990.64
2018-08-27T07:49:46.141Z,990.58
2018-08-27T07:50:46.295Z,990.56
2018-08-27T07:51:46.130Z,990.54
2018-08-27T07:52:46.129Z,990.53
2018-08-27T07:53:46.119Z,990.53
2018-08-27T07:54:46.111Z,990.52
2018-08-27T07:55:46.105Z,990.47
2018-08-27T07:56:46.094Z,990.54
2018-08-27T07:57:46.087Z,990.52
2018-08-27T07:58:46.078Z,990.53
2018-08-27T07:59:46.072Z,990.60
2018-08-27T08:00:46.068Z,990.53
2018-08-27T08:01:46.056Z,990.60
2018-08-27T08:02:46.052Z,990.62
2018-08-27T08:03:46.044Z,990.60
2018-08-27T08:04:46.097Z,990.63
2018-08-27T08:05:46.028Z,990.61
2018-08-27T08:06:46.019Z,990.70
2018-08-27T08:07:46.014Z,990.65
2018-08-27T08:08:46.004Z,990.61
2018-08-27T08:09:45.997Z,990.67
2018-08-27T08:10:45.991Z,990.66
2018-08-27T08:11:45.983Z,990.67
2018-08-27T08:12:45.979Z,990.69
2018-08-27T08:13:45.970Z,990.72
2018-08-27T08:14:45.960Z,990.75
2018-08-27T08:15:45.953Z,990.69
2018-08-27T08:16:45.945Z,990.70
2018-08-27T08:17:45.938Z,990.69
2018-08-27T08:18:45.933Z,990.75
2018-08-27T08:19:45.932Z,990.79
2018-08-27T08:20:45.915Z,990.75
2018-08-27T08:21:45.910Z,990.73
2018-08-27T08:22:45.975Z,990.72
2018-08-27T08:23:45.893Z,990.78
2018-08-27T08:24:45.886Z,990.77
2018-08-27T08:25:45.883Z,990.77
2018-08-27T08:26:45.874Z,990.74
2018-08-27T08:27:45.863Z,990.76
2018-08-27T08:28:45.851Z,990.84
2018-08-27T08:29:45.854Z,990.85
2018-08-27T08:30:45.843Z,990.79
2018-08-27T08:31:45.837Z,990.78
2018-08-27T08:32:45.872Z,990.78
2018-08-27T08:33:45.823Z,990.81
2018-08-27T08:34:45.810Z,990.87
2018-08-27T08:35:45.806Z,990.79
2018-08-27T08:36:45.794Z,990.79
2018-08-27T08:37:45.791Z,990.78
2018-08-27T08:38:45.785Z,990.77
2018-08-27T08:39:45.807Z,990.73
2018-08-27T08:40:45.766Z,990.74
2018-08-27T08:41:45.760Z,990.76
2018-08-27T08:42:45.752Z,990.74
2018-08-27T08:43:45.744Z,990.72
2018-08-27T08:44:45.738Z,990.75
2018-08-27T08:45:45.730Z,990.73
2018-08-27T08:46:45.728Z,990.77
2018-08-27T08:47:45.716Z,990.76
2018-08-27T08:48:45.711Z,990.80
2018-08-27T08:49:45.703Z,990.78
2018-08-27T08:50:45.694Z,990.78
2018-08-27T08:51:45.689Z,990.82
2018-08-27T08:52:45.680Z,990.79
2018-08-27T08:53:45.670Z,990.87
2018-08-27T08:54:45.664Z,990.87
2018-08-27T08:55:45.655Z,990.88
2018-08-27T08:56:45.648Z,990.85
2018-08-27T08:57:45.642Z,990.85
2018-08-27T08:58:45.634Z,990.89
2018-08-27T08:59:45.627Z,990.88
2018-08-27T09:00:45.620Z,990.86
2018-08-27T09:01:45.749Z,990.84
2018-08-27T09:02:45.604Z,990.90
2018-08-27T09:03:45.597Z,990.90
2018-08-27T09:04:45.595Z,990.96
2018-08-27T09:05:45.583Z,990.92
2018-08-27T09:06:45.575Z,990.93
2018-08-27T09:07:45.568Z,990.95
2018-08-27T09:08:45.565Z,990.96
2018-08-27T09:09:45.553Z,990.96
2018-08-27T09:10:45.545Z,990.95
2018-08-27T09:11:45.538Z,990.93
2018-08-27T09:12:45.531Z,990.96
2018-08-27T09:13:45.522Z,990.96
2018-08-27T09:14:45.522Z,991.02
2018-08-27T09:15:45.509Z,990.99
2018-08-27T09:16:45.529Z,991.05
2018-08-27T09:17:45.497Z,991.06
2018-08-27T09:18:45.488Z,991.09
2018-08-27T09:19:45.485Z,991.13
2018-08-27T09:20:45.473Z,991.16
2018-08-27T09:21:45.466Z,991.19
2018-08-27T09:22:45.456Z,991.18
2018-08-27T09:23:45.574Z,991.15
2018-08-27T09:24:45.452Z,991.19
2018-08-27T09:25:45.435Z,991.19
2018-08-27T09:26:45.427Z,991.20
2018-08-27T09:27:45.422Z,991.24
2018-08-27T09:28:45.412Z,991.27
2018-08-27T09:29:45.406Z,991.24
2018-08-27T09:30:45.399Z,991.23
2018-08-27T09:31:45.392Z,991.21
2018-08-27T09:32:45.383Z,991.20
2018-08-27T09:33:45.378Z,991.21
2018-08-27T09:34:45.367Z,991.15
2018-08-27T09:35:45.359Z,991.16
2018-08-27T09:36:45.393Z,991.25
2018-08-27T09:37:45.351Z,991.17
2018-08-27T09:38:45.339Z,991.16
2018-08-27T09:39:45.331Z,991.14
2018-08-27T09:40:45.324Z,991.10
2018-08-27T09:41:45.318Z,991.03
2018-08-27T09:42:45.311Z,991.08
2018-08-27T09:43:45.303Z,991.12
2018-08-27T09:44:45.294Z,991.10
2018-08-27T09:45:45.295Z,991.09
2018-08-27T09:46:45.315Z,991.10
2018-08-27T09:47:45.276Z,991.15
2018-08-27T09:48:45.266Z,991.09
2018-08-27T09:49:45.260Z,991.09
2018-08-27T09:50:45.255Z,991.13
2018-08-27T09:51:45.242Z,991.17
2018-08-27T09:52:45.255Z,991.25
2018-08-27T09:53:45.231Z,991.17
2018-08-27T09:54:45.220Z,991.15
2018-08-27T09:55:45.215Z,991.22
2018-08-27T09:56:45.207Z,991.17
2018-08-27T09:57:45.200Z,991.13
2018-08-27T09:58:45.214Z,991.13
2018-08-27T09:59:45.187Z,991.10
2018-08-27T10:00:45.179Z,991.09
2018-08-27T10:01:45.169Z,991.03
2018-08-27T10:02:45.163Z,991.05
2018-08-27T10:03:45.157Z,991.06
2018-08-27T10:04:45.148Z,991.09
2018-08-27T10:05:45.143Z,991.08
2018-08-27T10:06:45.133Z,991.10
2018-08-27T10:07:45.128Z,991.07
2018-08-27T10:08:45.123Z,991.10
2018-08-27T10:09:45.114Z,991.07
2018-08-27T10:10:45.110Z,991.06
2018-08-27T10:11:45.104Z,991.07
2018-08-27T10:12:45.092Z,991.06
2018-08-27T10:13:45.084Z,991.03
2018-08-27T10:14:45.151Z,990.99
2018-08-27T10:15:45.066Z,991.04
2018-08-27T10:16:45.062Z,991.06
2018-08-27T10:17:45.061Z,991.10
2018-08-27T10:18:45.046Z,991.09
2018-08-27T10:19:45.040Z,991.09
2018-08-27T10:20:45.035Z,991.12
2018-08-27T10:21:45.024Z,991.11
2018-08-27T10:22:45.124Z,991.20
2018-08-27T10:23:45.015Z,991.18
2018-08-27T10:24:45.003Z,991.21
2018-08-27T10:25:44.995Z,991.23
2018-08-27T10:26:44.993Z,991.27
2018-08-27T10:27:44.981Z,991.25
2018-08-27T10:28:44.972Z,991.25
2018-08-27T10:29:44.982Z,991.21
2018-08-27T10:30:44.962Z,991.26
2018-08-27T10:31:44.951Z,991.25
2018-08-27T10:32:44.944Z,991.31
2018-08-27T10:33:44.942Z,991.28
2018-08-27T10:34:44.931Z,991.24
2018-08-27T10:35:44.922Z,991.30
2018-08-27T10:36:44.921Z,991.31
2018-08-27T10:37:44.909Z,991.26
2018-08-27T10:38:44.907Z,991.26
2018-08-27T10:39:44.895Z,991.28
2018-08-27T10:40:44.887Z,991.27
2018-08-27T10:41:44.882Z,991.22
2018-08-27T10:42:44.929Z,991.19
2018-08-27T10:43:44.868Z,991.19
2018-08-27T10:44:44.859Z,991.15
2018-08-27T10:45:44.881Z,991.16
2018-08-27T10:46:44.844Z,991.19
2018-08-27T10:47:44.836Z,991.18
2018-08-27T10:48:44.829Z,991.23
2018-08-27T10:49:44.826Z,991.30
2018-08-27T10:50:44.824Z,991.29
2018-08-27T10:51:44.809Z,991.28
2018-08-27T10:52:44.800Z,991.26
2018-08-27T10:53:44.788Z,991.30
2018-08-27T10:54:44.784Z,991.35
2018-08-27T10:55:44.777Z,991.32
2018-08-27T10:56:44.773Z,991.30
2018-08-27T10:57:44.806Z,991.34
2018-08-27T10:58:44.757Z,991.34
2018-08-27T10:59:44.750Z,991.34
2018-08-27T11:00:44.745Z,991.29
2018-08-27T11:01:44.735Z,991.27
2018-08-27T11:02:44.727Z,991.24
2018-08-27T11:03:44.720Z,991.21
2018-08-27T11:04:44.714Z,991.26
2018-08-27T11:05:44.708Z,991.25
2018-08-27T11:06:44.705Z,991.30
2018-08-27T11:07:44.696Z,991.37
2018-08-27T11:08:44.687Z,991.45
2018-08-27T11:09:44.680Z,991.37
2018-08-27T11:10:44.718Z,991.39
2018-08-27T11:11:44.665Z,991.41
2018-08-27T11:12:44.660Z,991.36
2018-08-27T11:13:44.652Z,991.43
2018-08-27T11:14:44.646Z,991.33
2018-08-27T11:15:44.638Z,991.34
2018-08-27T11:16:44.630Z,991.22
2018-08-27T11:17:44.628Z,991.25
2018-08-27T11:18:44.632Z,991.26
2018-08-27T11:19:44.653Z,991.28
2018-08-27T11:20:44.720Z,991.28
2018-08-27T11:21:44.590Z,991.31
2018-08-27T11:22:44.585Z,991.32
2018-08-27T11:23:44.578Z,991.29
2018-08-27T11:24:44.580Z,991.29
2018-08-27T11:25:44.579Z,991.29
2018-08-27T11:26:44.727Z,991.31
2018-08-27T11:27:44.552Z,991.33
2018-08-27T11:28:44.544Z,991.32
2018-08-27T11:29:44.537Z,991.32
2018-08-27T11:30:44.531Z,991.32
2018-08-27T11:31:44.522Z,991.32
2018-08-27T11:32:44.521Z,991.28
2018-08-27T11:33:44.509Z,991.32
2018-08-27T11:34:44.502Z,991.29
2018-08-27T11:35:44.496Z,991.33
2018-08-27T11:36:44.487Z,991.36
2018-08-27T11:37:44.483Z,991.25
2018-08-27T11:38:44.474Z,991.25
2018-08-27T11:39:44.465Z,991.32
2018-08-27T11:40:44.460Z,991.32
2018-08-27T11:41:44.452Z,991.32
2018-08-27T11:42:44.445Z,991.32
2018-08-27T11:43:44.439Z,991.32
2018-08-27T11:44:44.432Z,991.35
2018-08-27T11:45:44.428Z,991.38
2018-08-27T11:46:44.417Z,991.38
2018-08-27T11:47:44.410Z,991.43
2018-08-27T11:48:44.404Z,991.36
2018-08-27T11:49:44.397Z,991.50
2018-08-27T11:50:44.514Z,991.47
2018-08-27T11:51:44.399Z,991.46
2018-08-27T11:52:44.376Z,991.43
2018-08-27T11:53:44.368Z,991.43
2018-08-27T11:54:44.361Z,991.43
2018-08-27T11:55:44.353Z,991.48
2018-08-27T11:56:44.348Z,991.55
2018-08-27T11:57:44.340Z,991.53
2018-08-27T11:58:44.414Z,991.54
2018-08-27T11:59:44.325Z,991.59
2018-08-27T12:00:44.318Z,991.54
2018-08-27T12:01:44.317Z,991.61
2018-08-27T12:02:44.306Z,991.66
2018-08-27T12:03:44.298Z,991.63
2018-08-27T12:04:44.291Z,991.59
2018-08-27T12:05:44.285Z,991.61
2018-08-27T12:06:44.281Z,991.69
2018-08-27T12:07:44.270Z,991.68
2018-08-27T12:08:44.303Z,991.69
2018-08-27T12:09:44.261Z,991.71
2018-08-27T12:10:44.249Z,991.72
2018-08-27T12:11:44.242Z,991.66
2018-08-27T12:12:44.234Z,991.74
2018-08-27T12:13:44.230Z,991.69
2018-08-27T12:14:44.221Z,991.69
2018-08-27T12:15:44.248Z,991.66
2018-08-27T12:16:44.269Z,991.63
2018-08-27T12:17:44.202Z,991.60
2018-08-27T12:18:44.193Z,991.60
2018-08-27T12:19:44.205Z,991.63
2018-08-27T12:20:44.197Z,991.60
2018-08-27T12:21:44.182Z,991.67
2018-08-27T12:22:44.182Z,991.62
2018-08-27T12:23:44.191Z,991.60
2018-08-27T12:24:44.153Z,991.68
2018-08-27T12:25:44.145Z,991.67
2018-08-27T12:26:44.137Z,991.68
2018-08-27T12:27:44.129Z,991.69
2018-08-27T12:28:44.123Z,991.68